Rio Pico, Argentina
Current Conditions -  °F | °C
As of 11:00 PM on Saturday 25 Oct 2014 (Local Time) from SCAP Reporting Station
Clear Clear  
Wind Chill: 13°   Ceiling: Unl
Heat Index: 13°   Visibility: NA
Dew Point:   Wind: 10mph
Humidity: 44%   Direction: 210°SSW
Pressure: 30"   Gusts: NA
Location:  44.2°S, 71.35°W
Report Text: SCAP 260200Z AUTO 21009KT 180V250 //// // NSC 13/01 Q1016
Loading
Personal Weather Stations






























Interactive Weather Map
Tropical Storm Tracking
New forecast layout! Learn more

10-Day Weather Forecast

Advertisements
Track Severe Weather on mobile